Weather at Montreal / St-Lazare Airport

Public forecast

Using degrees Celsius for public forecast. Weather courtesy of forecast.io.

Closest aviation weather report (METAR) to Montreal / St-Lazare Airport

Closest report is Montreal / Pierre Elliott Trudeau International Airport, 17.3 nm (32.0 km) ENE. Retrieved 2021/02/27 06:00 UTC (16 minutes ago):

CYUL 270600Z 11003KT 070V140 15SM SKC M06/M10 A3029 RMK SLP260

Closest aviation forecast (TAF) to Montreal / St-Lazare Airport

Closest forecast is Montreal / Pierre Elliott Trudeau International Airport, 17.3 nm (32.0 km) ENE. Retrieved 2021/02/27 06:42 UTC (0 seconds ago):

TAF TAF CYUL 270538Z 2706/2806 VRB03KT P6SM FEW250 FM271200 15010KT P6SM FEW040 BKN140 OVC220 TEMPO 2714/2715 2SM -SN SCT015 OVC040 FM271500 15012G22KT 11/2SM -SN BKN015 OVC030 FM271700 15012G22KT 3SM -RASN BKN012 OVC025 FM271900 15015G25KT 6SM -RA BR BKN012 OVC025 FM272100 22010KT 6SM -RA BR BKN010 OVC025 PROB30 2721/2723 2SM -DZ BR BKN008 OVC015 FM272300 26018G28KT P6SM -SHRA SCT020 BKN060 FM280300 27012KT P6SM BKN030 RMK NXT FCST BY 270900Z